Terminal Aerodrome Forecast
Issued by NWS Cleveland, OH

Home | Current Version | Previous Version | Graphics & Text | Print | Product List | Glossary On
Versions: 1 2 3 4 5 6 7 8 9 10 11 12 13 14 15 16 17 18 19 20 21 22 23 24 25 26 27 28 29 30
000
FTUS41 KCLE 191700
TAFCLE
TAF
KCLE 191720Z 1918/2024 18014G24KT P6SM -SN SCT015 OVC035
      TEMPO 1918/1919 2SM -SN BR OVC015
     FM191900 18014G24KT 6SM -SN OVC035
      TEMPO 1920/1924 OVC025
     FM200000 25015G25KT P6SM -SN OVC025
     FM200600 24012G20KT P6SM OVC025
     FM201200 24012G22KT P6SM -SN SCT025 OVC035
     FM202200 25014G22KT 4SM -SHSN OVC025=

USA.gov is the U.S. government's official web portal to all federal, state and local government web resources and services.